Search for airport 
image banner adimage banner adimage banner ad
image banner ad

NV91 - Fly Sin City #1

Located in Sandy Valley, United States

ICAO - NV91, IATA -

Data provided by Airmate  

General information

Coordinates: N35°50'42" W115°32'54"
Elevation is 4331 feet MSL.
 
View others Airports in Nevada

Operational data

Special qualification required
Current time UTC:
Current local time:
Weather at : KHND - Henderson Executive ( 40 km )
METAR: KHND 270456Z AUTO 17009KT 10SM FEW070 24/21 A3004 RMK AO2 SLPNO T02440206
TAF: KHND 270113Z 2701/2724 20007KT P6SM VCTS SCT070CB BKN120 TEMPO 2701/2702 19020G30KT 2SM +TSRA BKN070CB FM270300 17009KT P6SM SCT120 FM270900 VRB06KT P6SM SCT120 FM271900 21008KT P6SM SCT120
View NOTAMs / SUP AIP / TFR affecting this airport [VIEW]
Communications frequencies: [VIEW]

Runways:

Airport contact information

Address: Sandy Valley United States

Satellite view of NV91